sensor_id;sensor_type;location;lat;lon;timestamp;temperature;humidity
13521;DHT22;6832;51.186;3.236;2022-08-19T00:00:35;23.40;62.20
13521;DHT22;6832;51.186;3.236;2022-08-19T00:03:06;23.30;62.30
13521;DHT22;6832;51.186;3.236;2022-08-19T00:05:34;23.30;62.40
13521;DHT22;6832;51.186;3.236;2022-08-19T00:08:09;23.30;62.70
13521;DHT22;6832;51.186;3.236;2022-08-19T00:10:36;23.20;63.20
13521;DHT22;6832;51.186;3.236;2022-08-19T00:13:16;23.20;62.80
13521;DHT22;6832;51.186;3.236;2022-08-19T00:15:44;23.20;63.60
13521;DHT22;6832;51.186;3.236;2022-08-19T00:18:20;23.10;63.30
13521;DHT22;6832;51.186;3.236;2022-08-19T00:20:50;23.10;63.90
13521;DHT22;6832;51.186;3.236;2022-08-19T00:23:31;23.00;63.50
13521;DHT22;6832;51.186;3.236;2022-08-19T00:26:07;23.00;64.00
13521;DHT22;6832;51.186;3.236;2022-08-19T00:28:50;22.90;64.00
13521;DHT22;6832;51.186;3.236;2022-08-19T00:31:21;23.00;63.80
13521;DHT22;6832;51.186;3.236;2022-08-19T00:33:51;22.90;63.90
13521;DHT22;6832;51.186;3.236;2022-08-19T00:36:22;22.90;63.80
13521;DHT22;6832;51.186;3.236;2022-08-19T00:39:00;22.90;64.10
13521;DHT22;6832;51.186;3.236;2022-08-19T00:41:30;22.90;64.40
13521;DHT22;6832;51.186;3.236;2022-08-19T00:44:03;22.80;64.00
13521;DHT22;6832;51.186;3.236;2022-08-19T00:49:47;22.80;64.90
13521;DHT22;6832;51.186;3.236;2022-08-19T00:52:21;22.70;64.30
13521;DHT22;6832;51.186;3.236;2022-08-19T00:54:59;22.70;64.40
13521;DHT22;6832;51.186;3.236;2022-08-19T00:57:35;22.60;64.80
13521;DHT22;6832;51.186;3.236;2022-08-19T01:00:07;22.60;64.70
13521;DHT22;6832;51.186;3.236;2022-08-19T01:02:36;22.60;64.80
13521;DHT22;6832;51.186;3.236;2022-08-19T01:05:08;22.60;64.90
13521;DHT22;6832;51.186;3.236;2022-08-19T01:07:40;22.60;65.40
13521;DHT22;6832;51.186;3.236;2022-08-19T01:10:41;22.50;65.50
13521;DHT22;6832;51.186;3.236;2022-08-19T01:13:17;22.50;66.20
13521;DHT22;6832;51.186;3.236;2022-08-19T01:15:51;22.50;65.60
13521;DHT22;6832;51.186;3.236;2022-08-19T01:18:21;22.50;65.60
13521;DHT22;6832;51.186;3.236;2022-08-19T01:20:58;22.50;65.60
13521;DHT22;6832;51.186;3.236;2022-08-19T01:23:32;22.40;66.20
13521;DHT22;6832;51.186;3.236;2022-08-19T01:26:11;22.40;66.00
13521;DHT22;6832;51.186;3.236;2022-08-19T01:28:42;22.40;65.70
13521;DHT22;6832;51.186;3.236;2022-08-19T01:31:13;22.40;65.80
13521;DHT22;6832;51.186;3.236;2022-08-19T01:33:42;22.30;65.90
13521;DHT22;6832;51.186;3.236;2022-08-19T01:36:13;22.30;65.90
13521;DHT22;6832;51.186;3.236;2022-08-19T01:38:43;22.30;66.10
13521;DHT22;6832;51.186;3.236;2022-08-19T01:41:12;22.20;66.20
13521;DHT22;6832;51.186;3.236;2022-08-19T01:43:47;22.20;66.90
13521;DHT22;6832;51.186;3.236;2022-08-19T01:46:16;22.20;66.30
13521;DHT22;6832;51.186;3.236;2022-08-19T01:48:46;22.10;66.20
13521;DHT22;6832;51.186;3.236;2022-08-19T01:51:17;22.10;66.70
13521;DHT22;6832;51.186;3.236;2022-08-19T01:53:52;22.00;66.30
13521;DHT22;6832;51.186;3.236;2022-08-19T01:56:20;22.00;67.30
13521;DHT22;6832;51.186;3.236;2022-08-19T01:58:51;22.00;66.90
13521;DHT22;6832;51.186;3.236;2022-08-19T02:01:20;22.00;67.20
13521;DHT22;6832;51.186;3.236;2022-08-19T02:03:47;22.00;67.20
13521;DHT22;6832;51.186;3.236;2022-08-19T02:06:14;21.90;67.20
13521;DHT22;6832;51.186;3.236;2022-08-19T02:08:52;21.90;67.30
13521;DHT22;6832;51.186;3.236;2022-08-19T02:11:23;21.90;67.80
13521;DHT22;6832;51.186;3.236;2022-08-19T02:13:52;21.90;67.80
13521;DHT22;6832;51.186;3.236;2022-08-19T02:16:21;21.80;67.60
13521;DHT22;6832;51.186;3.236;2022-08-19T02:18:52;21.80;67.70
13521;DHT22;6832;51.186;3.236;2022-08-19T02:21:21;21.80;68.00
13521;DHT22;6832;51.186;3.236;2022-08-19T02:23:54;21.80;67.70
13521;DHT22;6832;51.186;3.236;2022-08-19T02:26:22;21.70;68.20
13521;DHT22;6832;51.186;3.236;2022-08-19T02:28:49;21.70;68.10
13521;DHT22;6832;51.186;3.236;2022-08-19T02:31:24;21.70;68.20
13521;DHT22;6832;51.186;3.236;2022-08-19T02:33:52;21.70;69.70
13521;DHT22;6832;51.186;3.236;2022-08-19T02:36:27;21.70;68.60
13521;DHT22;6832;51.186;3.236;2022-08-19T02:39:14;21.60;69.20
13521;DHT22;6832;51.186;3.236;2022-08-19T02:41:40;21.60;69.80
13521;DHT22;6832;51.186;3.236;2022-08-19T02:44:07;21.60;69.00
13521;DHT22;6832;51.186;3.236;2022-08-19T02:46:35;21.60;69.20
13521;DHT22;6832;51.186;3.236;2022-08-19T02:49:06;21.60;69.40
13521;DHT22;6832;51.186;3.236;2022-08-19T02:51:36;21.50;69.90
13521;DHT22;6832;51.186;3.236;2022-08-19T02:54:05;21.60;69.80
13521;DHT22;6832;51.186;3.236;2022-08-19T02:56:36;21.60;69.70
13521;DHT22;6832;51.186;3.236;2022-08-19T02:59:04;21.50;70.20
13521;DHT22;6832;51.186;3.236;2022-08-19T03:01:39;21.50;69.80
13521;DHT22;6832;51.186;3.236;2022-08-19T03:04:08;21.50;70.20
13521;DHT22;6832;51.186;3.236;2022-08-19T03:06:38;21.50;70.20
13521;DHT22;6832;51.186;3.236;2022-08-19T03:09:13;21.50;70.20
13521;DHT22;6832;51.186;3.236;2022-08-19T03:11:44;21.40;70.70
13521;DHT22;6832;51.186;3.236;2022-08-19T03:14:13;21.50;70.80
13521;DHT22;6832;51.186;3.236;2022-08-19T03:16:44;21.50;70.70
13521;DHT22;6832;51.186;3.236;2022-08-19T03:19:12;21.40;71.10
13521;DHT22;6832;51.186;3.236;2022-08-19T03:21:53;21.40;71.00
13521;DHT22;6832;51.186;3.236;2022-08-19T03:24:22;21.40;71.00
13521;DHT22;6832;51.186;3.236;2022-08-19T03:27:12;21.40;71.40
13521;DHT22;6832;51.186;3.236;2022-08-19T03:29:58;21.40;72.10
13521;DHT22;6832;51.186;3.236;2022-08-19T03:32:31;21.40;72.40
13521;DHT22;6832;51.186;3.236;2022-08-19T03:35:09;21.40;71.90
13521;DHT22;6832;51.186;3.236;2022-08-19T03:38:12;21.50;72.10
13521;DHT22;6832;51.186;3.236;2022-08-19T03:40:41;21.50;72.50
13521;DHT22;6832;51.186;3.236;2022-08-19T03:43:39;21.50;71.80
13521;DHT22;6832;51.186;3.236;2022-08-19T03:46:31;21.50;73.00
13521;DHT22;6832;51.186;3.236;2022-08-19T03:49:03;21.50;72.90
13521;DHT22;6832;51.186;3.236;2022-08-19T03:51:37;21.50;72.80
13521;DHT22;6832;51.186;3.236;2022-08-19T03:54:32;21.50;72.40
13521;DHT22;6832;51.186;3.236;2022-08-19T03:57:36;21.50;73.00
13521;DHT22;6832;51.186;3.236;2022-08-19T04:00:58;21.50;73.30
13521;DHT22;6832;51.186;3.236;2022-08-19T04:03:46;21.50;73.20
13521;DHT22;6832;51.186;3.236;2022-08-19T04:06:18;21.50;73.10
13521;DHT22;6832;51.186;3.236;2022-08-19T04:08:53;21.50;73.00
13521;DHT22;6832;51.186;3.236;2022-08-19T04:11:33;21.50;73.40
13521;DHT22;6832;51.186;3.236;2022-08-19T04:14:15;21.50;74.00
13521;DHT22;6832;51.186;3.236;2022-08-19T04:16:52;21.50;74.20
13521;DHT22;6832;51.186;3.236;2022-08-19T04:19:23;21.50;74.10
13521;DHT22;6832;51.186;3.236;2022-08-19T04:21:55;21.50;73.50
13521;DHT22;6832;51.186;3.236;2022-08-19T04:24:31;21.50;74.10
13521;DHT22;6832;51.186;3.236;2022-08-19T04:27:04;21.50;74.40
13521;DHT22;6832;51.186;3.236;2022-08-19T04:29:33;21.50;74.90
13521;DHT22;6832;51.186;3.236;2022-08-19T04:32:10;21.50;74.50
13521;DHT22;6832;51.186;3.236;2022-08-19T04:34:47;21.50;75.30
13521;DHT22;6832;51.186;3.236;2022-08-19T04:37:25;21.50;75.20
13521;DHT22;6832;51.186;3.236;2022-08-19T04:40:13;21.60;75.50
13521;DHT22;6832;51.186;3.236;2022-08-19T04:43:03;21.60;76.20
13521;DHT22;6832;51.186;3.236;2022-08-19T04:45:47;21.60;76.10
13521;DHT22;6832;51.186;3.236;2022-08-19T04:48:22;21.60;75.90
13521;DHT22;6832;51.186;3.236;2022-08-19T04:51:08;21.60;76.70
13521;DHT22;6832;51.186;3.236;2022-08-19T04:53:40;21.70;77.30
13521;DHT22;6832;51.186;3.236;2022-08-19T04:56:12;21.70;77.00
13521;DHT22;6832;51.186;3.236;2022-08-19T04:59:03;21.70;78.00
13521;DHT22;6832;51.186;3.236;2022-08-19T05:01:55;21.70;78.80
13521;DHT22;6832;51.186;3.236;2022-08-19T05:04:34;21.70;79.80
13521;DHT22;6832;51.186;3.236;2022-08-19T05:10:35;21.80;80.50
13521;DHT22;6832;51.186;3.236;2022-08-19T05:13:19;21.80;80.90
13521;DHT22;6832;51.186;3.236;2022-08-19T05:15:57;21.80;81.50
13521;DHT22;6832;51.186;3.236;2022-08-19T05:18:57;21.90;82.20
13521;DHT22;6832;51.186;3.236;2022-08-19T05:22:01;21.90;83.30
13521;DHT22;6832;51.186;3.236;2022-08-19T05:25:19;21.90;83.40
13521;DHT22;6832;51.186;3.236;2022-08-19T05:28:04;22.00;84.10
13521;DHT22;6832;51.186;3.236;2022-08-19T05:30:47;22.00;84.30
13521;DHT22;6832;51.186;3.236;2022-08-19T05:33:29;22.10;84.90
13521;DHT22;6832;51.186;3.236;2022-08-19T05:39:42;22.10;85.50
13521;DHT22;6832;51.186;3.236;2022-08-19T05:42:11;22.20;85.60
13521;DHT22;6832;51.186;3.236;2022-08-19T05:44:52;22.20;84.70
13521;DHT22;6832;51.186;3.236;2022-08-19T05:47:40;22.30;85.50
13521;DHT22;6832;51.186;3.236;2022-08-19T05:50:12;22.30;86.30
13521;DHT22;6832;51.186;3.236;2022-08-19T05:56:15;22.40;86.20
13521;DHT22;6832;51.186;3.236;2022-08-19T06:02:05;22.40;85.80
13521;DHT22;6832;51.186;3.236;2022-08-19T06:04:39;22.50;86.60
13521;DHT22;6832;51.186;3.236;2022-08-19T06:07:11;22.50;87.20
13521;DHT22;6832;51.186;3.236;2022-08-19T06:09:40;22.60;86.80
13521;DHT22;6832;51.186;3.236;2022-08-19T06:12:10;22.60;87.00
13521;DHT22;6832;51.186;3.236;2022-08-19T06:14:41;22.70;87.70
13521;DHT22;6832;51.186;3.236;2022-08-19T06:17:16;22.80;87.70
13521;DHT22;6832;51.186;3.236;2022-08-19T06:19:54;22.70;86.70
13521;DHT22;6832;51.186;3.236;2022-08-19T06:22:22;22.80;87.70
13521;DHT22;6832;51.186;3.236;2022-08-19T06:25:07;22.90;87.60
13521;DHT22;6832;51.186;3.236;2022-08-19T06:27:59;22.90;88.30
13521;DHT22;6832;51.186;3.236;2022-08-19T06:30:52;23.00;88.50
13521;DHT22;6832;51.186;3.236;2022-08-19T06:36:41;23.10;88.30
13521;DHT22;6832;51.186;3.236;2022-08-19T06:39:11;23.10;87.30
13521;DHT22;6832;51.186;3.236;2022-08-19T06:41:58;23.20;86.90
13521;DHT22;6832;51.186;3.236;2022-08-19T06:44:46;23.20;88.00
13521;DHT22;6832;51.186;3.236;2022-08-19T06:47:17;23.20;87.70
13521;DHT22;6832;51.186;3.236;2022-08-19T06:49:47;23.30;86.70
13521;DHT22;6832;51.186;3.236;2022-08-19T06:52:17;23.30;86.40
13521;DHT22;6832;51.186;3.236;2022-08-19T06:54:48;23.30;87.40
13521;DHT22;6832;51.186;3.236;2022-08-19T06:57:34;23.40;86.90
13521;DHT22;6832;51.186;3.236;2022-08-19T07:00:08;23.40;87.60
13521;DHT22;6832;51.186;3.236;2022-08-19T07:02:39;23.40;87.50
13521;DHT22;6832;51.186;3.236;2022-08-19T07:05:18;23.50;86.80
13521;DHT22;6832;51.186;3.236;2022-08-19T07:07:48;23.40;87.00
13521;DHT22;6832;51.186;3.236;2022-08-19T07:10:17;23.50;86.30
13521;DHT22;6832;51.186;3.236;2022-08-19T07:13:01;23.50;87.00
13521;DHT22;6832;51.186;3.236;2022-08-19T07:15:52;23.50;86.70
13521;DHT22;6832;51.186;3.236;2022-08-19T07:18:20;23.60;87.30
13521;DHT22;6832;51.186;3.236;2022-08-19T07:20:50;23.60;86.30
13521;DHT22;6832;51.186;3.236;2022-08-19T07:23:21;23.60;86.30
13521;DHT22;6832;51.186;3.236;2022-08-19T07:26:08;23.60;86.40
13521;DHT22;6832;51.186;3.236;2022-08-19T07:28:45;23.60;86.40
13521;DHT22;6832;51.186;3.236;2022-08-19T07:31:32;23.70;86.80
13521;DHT22;6832;51.186;3.236;2022-08-19T07:34:13;23.70;86.40
13521;DHT22;6832;51.186;3.236;2022-08-19T07:36:42;23.80;85.20
13521;DHT22;6832;51.186;3.236;2022-08-19T07:42:21;23.90;86.50
13521;DHT22;6832;51.186;3.236;2022-08-19T07:45:11;23.90;85.90
13521;DHT22;6832;51.186;3.236;2022-08-19T07:51:24;23.90;86.00
13521;DHT22;6832;51.186;3.236;2022-08-19T08:06:29;24.00;86.00
13521;DHT22;6832;51.186;3.236;2022-08-19T08:09:16;24.00;86.20
13521;DHT22;6832;51.186;3.236;2022-08-19T08:12:16;24.10;85.60
13521;DHT22;6832;51.186;3.236;2022-08-19T08:14:56;24.10;86.40
13521;DHT22;6832;51.186;3.236;2022-08-19T08:17:37;24.10;85.80
13521;DHT22;6832;51.186;3.236;2022-08-19T08:27:58;24.30;85.00
13521;DHT22;6832;51.186;3.236;2022-08-19T08:30:27;24.30;85.30
13521;DHT22;6832;51.186;3.236;2022-08-19T08:32:58;24.30;85.00
13521;DHT22;6832;51.186;3.236;2022-08-19T08:35:26;24.40;84.90
13521;DHT22;6832;51.186;3.236;2022-08-19T08:37:54;24.40;84.40
13521;DHT22;6832;51.186;3.236;2022-08-19T08:40:35;24.40;84.70
13521;DHT22;6832;51.186;3.236;2022-08-19T08:43:22;24.40;85.00
13521;DHT22;6832;51.186;3.236;2022-08-19T08:45:57;24.50;85.20
13521;DHT22;6832;51.186;3.236;2022-08-19T08:48:34;24.50;84.70
13521;DHT22;6832;51.186;3.236;2022-08-19T08:51:09;24.50;84.40
13521;DHT22;6832;51.186;3.236;2022-08-19T08:53:38;24.50;84.70
13521;DHT22;6832;51.186;3.236;2022-08-19T08:56:09;24.60;84.20
13521;DHT22;6832;51.186;3.236;2022-08-19T08:58:48;24.60;85.00
13521;DHT22;6832;51.186;3.236;2022-08-19T09:01:17;24.70;83.80
13521;DHT22;6832;51.186;3.236;2022-08-19T09:03:50;24.70;83.60
13521;DHT22;6832;51.186;3.236;2022-08-19T09:06:25;24.80;83.30
13521;DHT22;6832;51.186;3.236;2022-08-19T09:12:05;24.80;83.20
13521;DHT22;6832;51.186;3.236;2022-08-19T09:18:01;25.00;82.40
13521;DHT22;6832;51.186;3.236;2022-08-19T09:20:35;25.00;82.20
13521;DHT22;6832;51.186;3.236;2022-08-19T09:23:05;25.00;81.80
13521;DHT22;6832;51.186;3.236;2022-08-19T09:25:36;25.10;82.20
13521;DHT22;6832;51.186;3.236;2022-08-19T09:28:11;25.10;81.90
13521;DHT22;6832;51.186;3.236;2022-08-19T09:30:46;25.20;81.70
13521;DHT22;6832;51.186;3.236;2022-08-19T09:33:16;25.20;81.20
13521;DHT22;6832;51.186;3.236;2022-08-19T09:35:44;25.30;81.10
13521;DHT22;6832;51.186;3.236;2022-08-19T09:38:15;25.30;81.00
13521;DHT22;6832;51.186;3.236;2022-08-19T09:40:43;25.30;80.40
13521;DHT22;6832;51.186;3.236;2022-08-19T09:43:11;25.30;80.40
13521;DHT22;6832;51.186;3.236;2022-08-19T09:45:38;25.30;80.40
13521;DHT22;6832;51.186;3.236;2022-08-19T09:48:06;25.30;80.40
13521;DHT22;6832;51.186;3.236;2022-08-19T09:50:41;25.30;80.00
13521;DHT22;6832;51.186;3.236;2022-08-19T09:53:11;25.40;79.90
13521;DHT22;6832;51.186;3.236;2022-08-19T09:55:42;25.40;80.00
13521;DHT22;6832;51.186;3.236;2022-08-19T09:58:10;25.40;79.70
13521;DHT22;6832;51.186;3.236;2022-08-19T10:00:38;25.40;79.50
13521;DHT22;6832;51.186;3.236;2022-08-19T10:03:06;25.40;79.00
13521;DHT22;6832;51.186;3.236;2022-08-19T10:05:34;25.50;78.90
13521;DHT22;6832;51.186;3.236;2022-08-19T10:08:21;25.50;78.60
13521;DHT22;6832;51.186;3.236;2022-08-19T10:10:49;25.50;78.30
13521;DHT22;6832;51.186;3.236;2022-08-19T10:13:21;25.50;78.40
13521;DHT22;6832;51.186;3.236;2022-08-19T10:15:51;25.50;78.20
13521;DHT22;6832;51.186;3.236;2022-08-19T10:18:37;25.50;78.00
13521;DHT22;6832;51.186;3.236;2022-08-19T10:21:08;25.50;78.00
13521;DHT22;6832;51.186;3.236;2022-08-19T10:23:46;25.50;78.30
13521;DHT22;6832;51.186;3.236;2022-08-19T10:26:22;25.60;78.20
13521;DHT22;6832;51.186;3.236;2022-08-19T10:28:51;25.60;78.00
13521;DHT22;6832;51.186;3.236;2022-08-19T10:31:19;25.60;77.40
13521;DHT22;6832;51.186;3.236;2022-08-19T10:33:47;25.60;77.30
13521;DHT22;6832;51.186;3.236;2022-08-19T10:36:17;25.70;77.10
13521;DHT22;6832;51.186;3.236;2022-08-19T10:38:50;25.70;76.90
13521;DHT22;6832;51.186;3.236;2022-08-19T10:41:25;25.70;76.60
13521;DHT22;6832;51.186;3.236;2022-08-19T10:43:54;25.70;76.30
13521;DHT22;6832;51.186;3.236;2022-08-19T10:46:25;25.70;76.80
13521;DHT22;6832;51.186;3.236;2022-08-19T10:49:01;25.70;76.90
13521;DHT22;6832;51.186;3.236;2022-08-19T10:51:30;25.80;77.50
13521;DHT22;6832;51.186;3.236;2022-08-19T10:54:19;25.80;77.50
13521;DHT22;6832;51.186;3.236;2022-08-19T10:56:47;25.90;77.40
13521;DHT22;6832;51.186;3.236;2022-08-19T10:59:29;26.00;76.90
13521;DHT22;6832;51.186;3.236;2022-08-19T11:02:00;26.10;76.50
13521;DHT22;6832;51.186;3.236;2022-08-19T11:04:41;26.10;76.20
13521;DHT22;6832;51.186;3.236;2022-08-19T11:07:17;26.20;75.00
13521;DHT22;6832;51.186;3.236;2022-08-19T11:09:57;26.30;74.30
13521;DHT22;6832;51.186;3.236;2022-08-19T11:12:24;26.40;74.10
13521;DHT22;6832;51.186;3.236;2022-08-19T11:15:03;26.40;74.40
13521;DHT22;6832;51.186;3.236;2022-08-19T11:17:34;26.50;74.20
13521;DHT22;6832;51.186;3.236;2022-08-19T11:20:12;26.50;73.80
13521;DHT22;6832;51.186;3.236;2022-08-19T11:22:42;26.60;72.70
13521;DHT22;6832;51.186;3.236;2022-08-19T11:25:11;26.60;73.50
13521;DHT22;6832;51.186;3.236;2022-08-19T11:27:39;26.70;73.50
13521;DHT22;6832;51.186;3.236;2022-08-19T11:30:14;26.80;73.20
13521;DHT22;6832;51.186;3.236;2022-08-19T11:32:42;26.80;72.60
13521;DHT22;6832;51.186;3.236;2022-08-19T11:35:12;26.80;72.70
13521;DHT22;6832;51.186;3.236;2022-08-19T11:38:01;26.90;72.70
13521;DHT22;6832;51.186;3.236;2022-08-19T11:40:37;26.90;72.20
13521;DHT22;6832;51.186;3.236;2022-08-19T11:43:07;27.00;72.40
13521;DHT22;6832;51.186;3.236;2022-08-19T11:45:36;27.00;72.40
13521;DHT22;6832;51.186;3.236;2022-08-19T11:48:03;27.00;72.20
13521;DHT22;6832;51.186;3.236;2022-08-19T11:50:30;27.00;72.80
13521;DHT22;6832;51.186;3.236;2022-08-19T11:53:01;27.00;72.80
13521;DHT22;6832;51.186;3.236;2022-08-19T11:55:40;27.10;72.80
13521;DHT22;6832;51.186;3.236;2022-08-19T11:58:26;27.10;72.80
13521;DHT22;6832;51.186;3.236;2022-08-19T12:01:08;27.10;73.40
13521;DHT22;6832;51.186;3.236;2022-08-19T12:04:06;27.10;74.50
13521;DHT22;6832;51.186;3.236;2022-08-19T12:06:39;27.10;74.50
13521;DHT22;6832;51.186;3.236;2022-08-19T12:09:20;27.00;75.30
13521;DHT22;6832;51.186;3.236;2022-08-19T12:12:23;26.90;76.50
13521;DHT22;6832;51.186;3.236;2022-08-19T12:15:15;26.90;76.50
13521;DHT22;6832;51.186;3.236;2022-08-19T12:18:14;26.90;76.90
13521;DHT22;6832;51.186;3.236;2022-08-19T12:20:49;26.80;76.90
13521;DHT22;6832;51.186;3.236;2022-08-19T12:23:35;26.80;76.80
13521;DHT22;6832;51.186;3.236;2022-08-19T12:26:04;26.70;76.80
13521;DHT22;6832;51.186;3.236;2022-08-19T12:29:11;26.70;77.10
13521;DHT22;6832;51.186;3.236;2022-08-19T12:31:42;26.60;77.70
13521;DHT22;6832;51.186;3.236;2022-08-19T12:34:22;26.50;78.10
13521;DHT22;6832;51.186;3.236;2022-08-19T12:37:03;26.40;78.00
13521;DHT22;6832;51.186;3.236;2022-08-19T12:40:02;26.40;78.90
13521;DHT22;6832;51.186;3.236;2022-08-19T12:42:45;26.30;79.80
13521;DHT22;6832;51.186;3.236;2022-08-19T12:45:23;26.30;80.50
13521;DHT22;6832;51.186;3.236;2022-08-19T12:47:57;26.20;82.30
13521;DHT22;6832;51.186;3.236;2022-08-19T12:50:25;26.20;82.40
13521;DHT22;6832;51.186;3.236;2022-08-19T12:52:52;26.20;81.50
13521;DHT22;6832;51.186;3.236;2022-08-19T12:55:21;26.20;81.60
13521;DHT22;6832;51.186;3.236;2022-08-19T12:57:53;26.20;81.80
13521;DHT22;6832;51.186;3.236;2022-08-19T13:00:23;26.20;80.90
13521;DHT22;6832;51.186;3.236;2022-08-19T13:02:53;26.10;80.90
13521;DHT22;6832;51.186;3.236;2022-08-19T13:05:26;26.10;80.60
13521;DHT22;6832;51.186;3.236;2022-08-19T13:08:30;26.10;81.60
13521;DHT22;6832;51.186;3.236;2022-08-19T13:11:12;26.10;82.00
13521;DHT22;6832;51.186;3.236;2022-08-19T13:13:41;26.10;84.60
13521;DHT22;6832;51.186;3.236;2022-08-19T13:16:13;26.10;84.90
13521;DHT22;6832;51.186;3.236;2022-08-19T13:18:57;26.20;86.20
13521;DHT22;6832;51.186;3.236;2022-08-19T13:21:49;26.20;86.00
13521;DHT22;6832;51.186;3.236;2022-08-19T13:24:19;26.20;84.80
13521;DHT22;6832;51.186;3.236;2022-08-19T13:26:46;26.30;85.00
13521;DHT22;6832;51.186;3.236;2022-08-19T13:29:14;26.30;84.20
13521;DHT22;6832;51.186;3.236;2022-08-19T13:32:00;26.40;83.50
13521;DHT22;6832;51.186;3.236;2022-08-19T13:34:45;26.40;84.00
13521;DHT22;6832;51.186;3.236;2022-08-19T13:37:14;26.40;84.10
13521;DHT22;6832;51.186;3.236;2022-08-19T13:40:03;26.50;84.50
13521;DHT22;6832;51.186;3.236;2022-08-19T13:42:31;26.60;85.70
13521;DHT22;6832;51.186;3.236;2022-08-19T13:44:59;26.60;86.10
13521;DHT22;6832;51.186;3.236;2022-08-19T13:47:30;26.70;86.10
13521;DHT22;6832;51.186;3.236;2022-08-19T13:49:57;26.80;85.20
13521;DHT22;6832;51.186;3.236;2022-08-19T13:54:56;27.10;85.20
13521;DHT22;6832;51.186;3.236;2022-08-19T14:01:02;27.40;84.10
13521;DHT22;6832;51.186;3.236;2022-08-19T14:03:33;27.60;80.20
13521;DHT22;6832;51.186;3.236;2022-08-19T14:06:03;27.80;78.50
13521;DHT22;6832;51.186;3.236;2022-08-19T14:08:44;28.00;77.00
13521;DHT22;6832;51.186;3.236;2022-08-19T14:11:14;28.10;77.50
13521;DHT22;6832;51.186;3.236;2022-08-19T14:13:42;28.30;76.20
13521;DHT22;6832;51.186;3.236;2022-08-19T14:16:12;28.40;75.10
13521;DHT22;6832;51.186;3.236;2022-08-19T14:18:44;28.50;73.60
13521;DHT22;6832;51.186;3.236;2022-08-19T14:21:20;28.50;72.40
13521;DHT22;6832;51.186;3.236;2022-08-19T14:23:52;28.70;72.40
13521;DHT22;6832;51.186;3.236;2022-08-19T14:26:23;28.70;71.50
13521;DHT22;6832;51.186;3.236;2022-08-19T14:28:52;28.80;70.40
13521;DHT22;6832;51.186;3.236;2022-08-19T14:31:22;28.90;71.10
13521;DHT22;6832;51.186;3.236;2022-08-19T14:34:08;29.00;69.80
13521;DHT22;6832;51.186;3.236;2022-08-19T14:36:53;29.10;68.00
13521;DHT22;6832;51.186;3.236;2022-08-19T14:39:27;29.20;68.90
13521;DHT22;6832;51.186;3.236;2022-08-19T14:41:54;29.30;68.20
13521;DHT22;6832;51.186;3.236;2022-08-19T14:44:26;29.30;68.20
13521;DHT22;6832;51.186;3.236;2022-08-19T14:46:55;29.30;67.20
13521;DHT22;6832;51.186;3.236;2022-08-19T14:49:29;29.40;66.30
13521;DHT22;6832;51.186;3.236;2022-08-19T14:51:57;29.40;65.70
13521;DHT22;6832;51.186;3.236;2022-08-19T14:54:25;29.40;66.20
13521;DHT22;6832;51.186;3.236;2022-08-19T14:56:54;29.40;66.50
13521;DHT22;6832;51.186;3.236;2022-08-19T14:59:22;29.40;65.70
13521;DHT22;6832;51.186;3.236;2022-08-19T15:01:50;29.30;66.40
13521;DHT22;6832;51.186;3.236;2022-08-19T15:04:18;29.30;66.00
13521;DHT22;6832;51.186;3.236;2022-08-19T15:06:47;29.30;65.80
13521;DHT22;6832;51.186;3.236;2022-08-19T15:09:18;29.30;66.00
13521;DHT22;6832;51.186;3.236;2022-08-19T15:11:45;29.30;66.00
13521;DHT22;6832;51.186;3.236;2022-08-19T15:14:13;29.30;66.20
13521;DHT22;6832;51.186;3.236;2022-08-19T15:17:06;29.30;65.90
13521;DHT22;6832;51.186;3.236;2022-08-19T15:19:35;29.30;64.60
13521;DHT22;6832;51.186;3.236;2022-08-19T15:22:04;29.20;65.20
13521;DHT22;6832;51.186;3.236;2022-08-19T15:24:32;29.10;65.00
13521;DHT22;6832;51.186;3.236;2022-08-19T15:27:16;29.10;65.00
13521;DHT22;6832;51.186;3.236;2022-08-19T15:29:51;29.00;64.50
13521;DHT22;6832;51.186;3.236;2022-08-19T15:32:37;29.00;64.90
13521;DHT22;6832;51.186;3.236;2022-08-19T15:35:07;28.90;64.80
13521;DHT22;6832;51.186;3.236;2022-08-19T15:37:37;28.90;64.50
13521;DHT22;6832;51.186;3.236;2022-08-19T15:40:06;28.80;64.10
13521;DHT22;6832;51.186;3.236;2022-08-19T15:42:34;28.80;64.20
13521;DHT22;6832;51.186;3.236;2022-08-19T15:45:02;28.70;63.60
13521;DHT22;6832;51.186;3.236;2022-08-19T15:47:30;28.70;64.20
13521;DHT22;6832;51.186;3.236;2022-08-19T15:49:59;28.60;64.20
13521;DHT22;6832;51.186;3.236;2022-08-19T15:52:28;28.60;64.20
13521;DHT22;6832;51.186;3.236;2022-08-19T15:55:00;28.50;64.90
13521;DHT22;6832;51.186;3.236;2022-08-19T15:57:28;28.50;65.00
13521;DHT22;6832;51.186;3.236;2022-08-19T16:00:20;28.50;66.10
13521;DHT22;6832;51.186;3.236;2022-08-19T16:03:04;28.40;65.70
13521;DHT22;6832;51.186;3.236;2022-08-19T16:05:51;28.40;66.30
13521;DHT22;6832;51.186;3.236;2022-08-19T16:08:47;28.40;66.50
13521;DHT22;6832;51.186;3.236;2022-08-19T16:11:24;28.40;66.70
13521;DHT22;6832;51.186;3.236;2022-08-19T16:13:52;28.40;66.80
13521;DHT22;6832;51.186;3.236;2022-08-19T16:16:25;28.20;66.40
13521;DHT22;6832;51.186;3.236;2022-08-19T16:18:56;28.20;66.50
13521;DHT22;6832;51.186;3.236;2022-08-19T16:21:25;28.10;66.40
13521;DHT22;6832;51.186;3.236;2022-08-19T16:24:00;28.10;66.80
13521;DHT22;6832;51.186;3.236;2022-08-19T16:26:29;28.00;67.00
13521;DHT22;6832;51.186;3.236;2022-08-19T16:28:57;27.90;67.30
13521;DHT22;6832;51.186;3.236;2022-08-19T16:31:24;27.90;67.80
13521;DHT22;6832;51.186;3.236;2022-08-19T16:33:53;27.80;67.90
13521;DHT22;6832;51.186;3.236;2022-08-19T16:36:23;27.70;68.40
13521;DHT22;6832;51.186;3.236;2022-08-19T16:38:51;27.60;68.70
13521;DHT22;6832;51.186;3.236;2022-08-19T16:41:44;27.60;69.80
13521;DHT22;6832;51.186;3.236;2022-08-19T16:44:16;27.50;69.80
13521;DHT22;6832;51.186;3.236;2022-08-19T16:46:47;27.40;69.60
13521;DHT22;6832;51.186;3.236;2022-08-19T16:49:16;27.40;70.00
13521;DHT22;6832;51.186;3.236;2022-08-19T16:51:45;27.40;70.20
13521;DHT22;6832;51.186;3.236;2022-08-19T16:54:13;27.30;70.50
13521;DHT22;6832;51.186;3.236;2022-08-19T16:56:40;27.30;70.70
13521;DHT22;6832;51.186;3.236;2022-08-19T16:59:12;27.30;70.80
13521;DHT22;6832;51.186;3.236;2022-08-19T17:01:42;27.20;71.30
13521;DHT22;6832;51.186;3.236;2022-08-19T17:04:11;27.20;71.10
13521;DHT22;6832;51.186;3.236;2022-08-19T17:06:39;27.20;71.20
13521;DHT22;6832;51.186;3.236;2022-08-19T17:09:06;27.20;71.20
13521;DHT22;6832;51.186;3.236;2022-08-19T17:11:34;27.20;72.10
13521;DHT22;6832;51.186;3.236;2022-08-19T17:14:03;27.10;71.50
13521;DHT22;6832;51.186;3.236;2022-08-19T17:16:35;27.10;71.80
13521;DHT22;6832;51.186;3.236;2022-08-19T17:19:06;27.00;72.40
13521;DHT22;6832;51.186;3.236;2022-08-19T17:21:39;27.00;72.80
13521;DHT22;6832;51.186;3.236;2022-08-19T17:24:07;27.00;73.30
13521;DHT22;6832;51.186;3.236;2022-08-19T17:26:35;27.00;73.20
13521;DHT22;6832;51.186;3.236;2022-08-19T17:29:04;27.00;73.70
13521;DHT22;6832;51.186;3.236;2022-08-19T17:31:33;27.00;73.20
13521;DHT22;6832;51.186;3.236;2022-08-19T17:34:02;27.00;72.80